Time;durP1;ratioP1;P1;durP2;ratioP2;P2;SDS_P1;SDS_P2;PMS_P1;PMS_P2;Temp;Humidity;BMP_temperature;BMP_pressure;BME280_temperature;BME280_humidity;BME280_pressure;Samples;Min_cycle;Max_cycle;Signal;HPM_P1;HPM_P2
2023/09/07 00:00:35;;;;;;;4.10;3.40;;;;;;;;;;5040442;28;20854;-64
2023/09/07 00:03:00;;;;;;;3.83;3.30;;;;;;;;;;5038611;28;20132;-64
2023/09/07 00:05:25;;;;;;;3.83;3.07;;;;;;;;;;5043186;28;20272;-64
2023/09/07 00:07:51;;;;;;;3.85;3.42;;;;;;;;;;5026316;28;20032;-64
2023/09/07 00:10:17;;;;;;;4.85;3.25;;;;;;;;;;5042123;28;20024;-65
2023/09/07 00:12:42;;;;;;;4.07;3.30;;;;;;;;;;5040035;28;20021;-65
2023/09/07 00:15:08;;;;;;;6.20;3.72;;;;;;;;;;5033883;28;20136;-64
2023/09/07 00:17:33;;;;;;;3.85;3.28;;;;;;;;;;5042933;28;20033;-64
2023/09/07 00:19:59;;;;;;;3.60;3.07;;;;;;;;;;5043965;28;21005;-64
2023/09/07 00:22:27;;;;;;;4.18;3.22;;;;;;;;;;5042789;28;20278;-63
2023/09/07 00:24:52;;;;;;;3.88;3.30;;;;;;;;;;5043743;28;20045;-64
2023/09/07 00:27:18;;;;;;;3.85;3.22;;;;;;;;;;5043158;28;20037;-64
2023/09/07 00:29:43;;;;;;;4.07;3.30;;;;;;;;;;5042544;28;20037;-64
2023/09/07 00:32:09;;;;;;;4.40;3.43;;;;;;;;;;5041861;28;20037;-64
2023/09/07 00:34:34;;;;;;;3.38;3.00;;;;;;;;;;5043968;28;20033;-65
2023/09/07 00:37:00;;;;;;;3.80;3.05;;;;;;;;;;5042923;28;20045;-64
2023/09/07 00:39:25;;;;;;;3.63;2.95;;;;;;;;;;5042913;28;20029;-63
2023/09/07 00:41:50;;;;;;;4.20;3.33;;;;;;;;;;5023251;28;20037;-63
2023/09/07 00:44:15;;;;;;;3.83;3.13;;;;;;;;;;5042817;28;20493;-64
2023/09/07 00:46:41;;;;;;;3.73;3.13;;;;;;;;;;5043217;28;20334;-64
2023/09/07 00:49:06;;;;;;;4.72;3.33;;;;;;;;;;5031780;28;20071;-64
2023/09/07 00:51:31;;;;;;;4.10;3.10;;;;;;;;;;5042881;28;20029;-63
2023/09/07 00:53:57;;;;;;;3.80;3.37;;;;;;;;;;5042900;28;20282;-64
2023/09/07 00:56:22;;;;;;;4.05;3.20;;;;;;;;;;5041760;28;20821;-63
2023/09/07 00:58:48;;;;;;;3.70;3.30;;;;;;;;;;5041771;28;20045;-63
2023/09/07 01:01:13;;;;;;;4.63;3.43;;;;;;;;;;5040790;28;20045;-63
2023/09/07 01:03:38;;;;;;;3.70;3.10;;;;;;;;;;5042197;28;20119;-64
2023/09/07 01:06:03;;;;;;;4.25;2.97;;;;;;;;;;5043319;28;20041;-64
2023/09/07 01:08:31;;;;;;;4.37;3.03;;;;;;;;;;5042039;28;20923;-63
2023/09/07 01:10:56;;;;;;;4.15;3.35;;;;;;;;;;5040112;28;20287;-63
2023/09/07 01:13:21;;;;;;;4.67;3.80;;;;;;;;;;5026547;28;20106;-64
2023/09/07 01:15:46;;;;;;;4.22;3.70;;;;;;;;;;5040182;28;20271;-64
2023/09/07 01:18:12;;;;;;;4.10;3.40;;;;;;;;;;5042128;28;20463;-63
2023/09/07 01:20:37;;;;;;;3.97;3.10;;;;;;;;;;5042907;28;20283;-64
2023/09/07 01:23:03;;;;;;;5.47;3.60;;;;;;;;;;5042271;28;20310;-64
2023/09/07 01:25:28;;;;;;;3.45;2.88;;;;;;;;;;5025556;28;20857;-64
2023/09/07 01:27:53;;;;;;;3.63;3.13;;;;;;;;;;5037956;28;20029;-64
2023/09/07 01:30:18;;;;;;;4.40;3.17;;;;;;;;;;5039232;28;20275;-63
2023/09/07 01:32:44;;;;;;;4.57;3.33;;;;;;;;;;5043061;28;20061;-62
2023/09/07 01:35:10;;;;;;;3.90;3.37;;;;;;;;;;5043653;28;20037;-63
2023/09/07 01:37:35;;;;;;;3.83;3.08;;;;;;;;;;5042054;28;20295;-65
2023/09/07 01:40:00;;;;;;;4.43;3.50;;;;;;;;;;5042098;28;20045;-64
2023/09/07 01:42:26;;;;;;;3.75;3.30;;;;;;;;;;5042048;28;20325;-63
2023/09/07 01:44:51;;;;;;;3.85;3.35;;;;;;;;;;5038394;28;20030;-64
2023/09/07 01:47:16;;;;;;;4.27;3.37;;;;;;;;;;5025107;28;20468;-63
2023/09/07 01:49:41;;;;;;;3.97;3.37;;;;;;;;;;5043127;28;20275;-63
2023/09/07 01:52:06;;;;;;;4.85;3.33;;;;;;;;;;5042378;28;20041;-64
2023/09/07 01:54:32;;;;;;;4.67;3.53;;;;;;;;;;5043487;28;20452;-64
2023/09/07 01:56:57;;;;;;;5.03;3.53;;;;;;;;;;5039719;28;20394;-62
2023/09/07 01:59:22;;;;;;;4.47;3.83;;;;;;;;;;5041685;28;20052;-63
2023/09/07 02:01:48;;;;;;;3.80;3.37;;;;;;;;;;5042447;28;20442;-62
2023/09/07 02:04:13;;;;;;;3.80;3.37;;;;;;;;;;5043359;28;20428;-63
2023/09/07 02:06:39;;;;;;;3.90;3.40;;;;;;;;;;5044071;28;20287;-64
2023/09/07 02:09:04;;;;;;;4.75;3.90;;;;;;;;;;5046234;28;20041;-64
2023/09/07 02:11:29;;;;;;;4.47;3.70;;;;;;;;;;5044930;28;20098;-65
2023/09/07 02:13:54;;;;;;;4.53;3.65;;;;;;;;;;5046680;28;20033;-63
2023/09/07 02:16:20;;;;;;;4.33;3.70;;;;;;;;;;5044853;28;20128;-63
2023/09/07 02:18:46;;;;;;;4.07;3.67;;;;;;;;;;5044562;28;20275;-63
2023/09/07 02:21:12;;;;;;;4.15;3.53;;;;;;;;;;5045811;28;20354;-63
2023/09/07 02:23:37;;;;;;;4.23;3.60;;;;;;;;;;5044846;28;20442;-63
2023/09/07 02:26:02;;;;;;;4.57;3.80;;;;;;;;;;5044741;28;20279;-63
2023/09/07 02:28:28;;;;;;;5.77;3.60;;;;;;;;;;5025014;28;20030;-62
2023/09/07 02:30:53;;;;;;;3.90;3.33;;;;;;;;;;5040929;28;20992;-64
2023/09/07 02:33:18;;;;;;;4.97;3.40;;;;;;;;;;5040648;28;20100;-64
2023/09/07 02:35:43;;;;;;;4.10;3.43;;;;;;;;;;5036356;28;20109;-65
2023/09/07 02:38:09;;;;;;;4.37;3.97;;;;;;;;;;5044817;28;20296;-64
2023/09/07 02:40:42;;;;;;;3.88;3.38;;;;;;;;;;5046108;28;20857;-65
2023/09/07 02:43:07;;;;;;;4.10;3.70;;;;;;;;;;5044607;28;20118;-63
2023/09/07 02:45:32;;;;;;;4.80;3.80;;;;;;;;;;5034493;28;20041;-65
2023/09/07 02:47:57;;;;;;;4.60;3.87;;;;;;;;;;5033145;28;20284;-62
2023/09/07 02:51:02;;;;;;;4.23;3.80;;;;;;;;;;5045154;28;20056;-63
2023/09/07 02:53:28;;;;;;;4.60;3.92;;;;;;;;;;5041535;28;20147;-64
2023/09/07 02:55:53;;;;;;;4.47;3.77;;;;;;;;;;5044689;28;20944;-64
2023/09/07 02:58:18;;;;;;;3.97;3.57;;;;;;;;;;5043900;28;20325;-63
2023/09/07 03:00:44;;;;;;;4.63;3.95;;;;;;;;;;5041822;28;20296;-63
2023/09/07 03:03:09;;;;;;;4.20;3.53;;;;;;;;;;5043706;28;20134;-63
2023/09/07 03:05:35;;;;;;;4.43;3.78;;;;;;;;;;5045890;28;20501;-65
2023/09/07 03:08:00;;;;;;;4.93;3.90;;;;;;;;;;5045498;28;20460;-64
2023/09/07 03:10:25;;;;;;;4.30;3.87;;;;;;;;;;5044950;28;20311;-63
2023/09/07 03:12:52;;;;;;;4.80;3.97;;;;;;;;;;5042486;28;20328;-63
2023/09/07 03:15:17;;;;;;;4.40;3.90;;;;;;;;;;5045320;28;20037;-63
2023/09/07 03:17:43;;;;;;;4.75;3.90;;;;;;;;;;5044062;28;20057;-65
2023/09/07 03:20:14;;;;;;;4.57;3.80;;;;;;;;;;5036224;28;20145;-63
2023/09/07 03:22:43;;;;;;;5.07;4.40;;;;;;;;;;5043068;28;20497;-65
2023/09/07 03:25:09;;;;;;;4.60;4.00;;;;;;;;;;5037618;28;20037;-63
2023/09/07 03:27:34;;;;;;;6.03;4.47;;;;;;;;;;5043886;28;20037;-62
2023/09/07 03:30:00;;;;;;;4.47;4.07;;;;;;;;;;5043264;28;20064;-63
2023/09/07 03:32:28;;;;;;;4.57;3.97;;;;;;;;;;5042956;28;20543;-65
2023/09/07 03:34:54;;;;;;;4.63;3.92;;;;;;;;;;5044970;28;20045;-65
2023/09/07 03:37:20;;;;;;;4.80;4.03;;;;;;;;;;5043815;28;20064;-63
2023/09/07 03:39:45;;;;;;;5.40;4.30;;;;;;;;;;5024101;28;20037;-63
2023/09/07 03:42:10;;;;;;;4.73;3.97;;;;;;;;;;5039341;28;20531;-65
2023/09/07 03:44:35;;;;;;;4.60;4.00;;;;;;;;;;5044279;28;20548;-65
2023/09/07 03:47:00;;;;;;;4.50;3.92;;;;;;;;;;5044655;28;20429;-62
2023/09/07 03:49:26;;;;;;;4.57;4.03;;;;;;;;;;5043035;28;21088;-62
2023/09/07 03:51:51;;;;;;;4.87;3.97;;;;;;;;;;5044244;28;20280;-61
2023/09/07 03:54:16;;;;;;;4.97;4.03;;;;;;;;;;5043444;28;20048;-64
2023/09/07 03:56:41;;;;;;;4.50;3.70;;;;;;;;;;5044404;28;20065;-63
2023/09/07 03:59:07;;;;;;;6.55;4.20;;;;;;;;;;5028284;28;20033;-62
2023/09/07 04:01:32;;;;;;;4.70;4.03;;;;;;;;;;5037984;28;20460;-64
2023/09/07 04:03:58;;;;;;;5.10;4.03;;;;;;;;;;5043177;28;20418;-64
2023/09/07 04:06:24;;;;;;;4.90;4.20;;;;;;;;;;5044664;28;20421;-63
2023/09/07 04:08:49;;;;;;;5.40;4.28;;;;;;;;;;5046475;28;20279;-63
2023/09/07 04:11:14;;;;;;;4.83;4.23;;;;;;;;;;5043075;28;20549;-63
2023/09/07 04:13:39;;;;;;;4.90;3.90;;;;;;;;;;5042702;28;20280;-63
2023/09/07 04:16:04;;;;;;;5.25;4.10;;;;;;;;;;5040293;28;20041;-63
2023/09/07 04:18:30;;;;;;;4.77;4.27;;;;;;;;;;5044051;28;20044;-63
2023/09/07 04:21:04;;;;;;;4.95;4.45;;;;;;;;;;5044251;28;20037;-63
2023/09/07 04:23:29;;;;;;;5.05;4.47;;;;;;;;;;5043003;28;20135;-64
2023/09/07 04:26:03;;;;;;;5.40;4.50;;;;;;;;;;5043699;28;20115;-64
2023/09/07 04:28:28;;;;;;;5.57;4.65;;;;;;;;;;5033776;28;20371;-63
2023/09/07 04:30:53;;;;;;;5.80;4.50;;;;;;;;;;5037047;28;20425;-64
2023/09/07 04:33:18;;;;;;;5.65;4.57;;;;;;;;;;5043459;28;20379;-65
2023/09/07 04:35:44;;;;;;;4.97;4.47;;;;;;;;;;5042319;28;20120;-64
2023/09/07 04:38:09;;;;;;;5.57;4.73;;;;;;;;;;5043716;28;20092;-65
2023/09/07 04:40:34;;;;;;;5.50;4.27;;;;;;;;;;5040394;28;20044;-63
2023/09/07 04:42:59;;;;;;;5.60;4.60;;;;;;;;;;5043644;28;20291;-64
2023/09/07 04:45:25;;;;;;;5.67;4.57;;;;;;;;;;5035672;28;20306;-64
2023/09/07 04:47:50;;;;;;;4.83;4.20;;;;;;;;;;5039365;28;20649;-63
2023/09/07 04:50:16;;;;;;;5.10;4.60;;;;;;;;;;5043625;28;20428;-62
2023/09/07 04:52:41;;;;;;;5.17;4.30;;;;;;;;;;5043460;28;20029;-65
2023/09/07 04:55:27;;;;;;;5.37;4.60;;;;;;;;;;5043183;28;20315;-65
2023/09/07 04:58:13;;;;;;;5.75;4.28;;;;;;;;;;5021231;28;20425;-64
2023/09/07 05:00:38;;;;;;;4.87;4.20;;;;;;;;;;5042843;28;20040;-66
2023/09/07 05:03:03;;;;;;;5.80;5.10;;;;;;;;;;5041553;28;20648;-62
2023/09/07 05:05:29;;;;;;;5.05;4.50;;;;;;;;;;5041475;28;20416;-63
2023/09/07 05:07:54;;;;;;;5.95;5.22;;;;;;;;;;5043281;28;20489;-62
2023/09/07 05:10:19;;;;;;;5.70;4.97;;;;;;;;;;5043406;28;20033;-64
2023/09/07 05:12:45;;;;;;;6.20;4.93;;;;;;;;;;5041267;28;20036;-62
2023/09/07 05:15:10;;;;;;;5.43;4.88;;;;;;;;;;5040167;28;20299;-64
2023/09/07 05:17:35;;;;;;;6.10;4.90;;;;;;;;;;5026164;28;20045;-63
2023/09/07 05:20:01;;;;;;;6.07;5.07;;;;;;;;;;5012250;28;20296;-64
2023/09/07 05:22:39;;;;;;;6.38;4.70;;;;;;;;;;5040921;28;20132;-64
2023/09/07 05:25:04;;;;;;;5.45;4.78;;;;;;;;;;5024762;28;20401;-64
2023/09/07 05:27:30;;;;;;;5.50;4.72;;;;;;;;;;5043268;28;20036;-64
2023/09/07 05:29:55;;;;;;;6.00;5.10;;;;;;;;;;5042920;28;20037;-63
2023/09/07 05:32:20;;;;;;;5.47;4.20;;;;;;;;;;5043298;28;20813;-64
2023/09/07 05:34:45;;;;;;;5.60;4.80;;;;;;;;;;5039034;28;20439;-63
2023/09/07 05:37:10;;;;;;;5.30;4.37;;;;;;;;;;5043262;28;20572;-63
2023/09/07 05:39:36;;;;;;;5.70;5.10;;;;;;;;;;5043108;28;21515;-63
2023/09/07 05:42:01;;;;;;;6.10;5.20;;;;;;;;;;5046778;28;20037;-63
2023/09/07 05:44:26;;;;;;;5.35;4.50;;;;;;;;;;5044892;28;20033;-64
2023/09/07 05:46:51;;;;;;;6.80;5.83;;;;;;;;;;5039713;28;20766;-63
2023/09/07 05:49:17;;;;;;;5.73;4.73;;;;;;;;;;5042988;28;20494;-65
2023/09/07 05:51:42;;;;;;;5.57;4.97;;;;;;;;;;5046516;28;20494;-63
2023/09/07 05:54:07;;;;;;;5.53;4.90;;;;;;;;;;5045074;28;20845;-64
2023/09/07 05:56:33;;;;;;;6.90;4.93;;;;;;;;;;5044747;28;20562;-63
2023/09/07 05:58:58;;;;;;;6.07;4.90;;;;;;;;;;5045703;28;20029;-63
2023/09/07 06:01:24;;;;;;;6.22;4.65;;;;;;;;;;5043876;28;20107;-63
2023/09/07 06:03:49;;;;;;;5.70;5.10;;;;;;;;;;5045788;28;20578;-63
2023/09/07 06:06:14;;;;;;;6.27;4.80;;;;;;;;;;5046120;28;20348;-64
2023/09/07 06:08:39;;;;;;;5.43;4.63;;;;;;;;;;5046997;28;20037;-63
2023/09/07 06:11:05;;;;;;;6.07;5.15;;;;;;;;;;5046186;28;20029;-63
2023/09/07 06:13:30;;;;;;;6.03;5.18;;;;;;;;;;5043599;28;20037;-65
2023/09/07 06:15:56;;;;;;;6.13;4.77;;;;;;;;;;5039683;28;20036;-62
2023/09/07 06:18:21;;;;;;;5.97;5.07;;;;;;;;;;5046038;28;20758;-63
2023/09/07 06:20:47;;;;;;;5.10;4.60;;;;;;;;;;5042874;28;20037;-63
2023/09/07 06:23:12;;;;;;;5.32;4.80;;;;;;;;;;5043535;28;20044;-64
2023/09/07 06:25:37;;;;;;;5.80;5.07;;;;;;;;;;5024666;28;20037;-66
2023/09/07 06:28:03;;;;;;;5.72;4.97;;;;;;;;;;5046432;28;20124;-64
2023/09/07 06:30:28;;;;;;;5.60;5.00;;;;;;;;;;5045789;28;20033;-65
2023/09/07 06:32:53;;;;;;;6.23;5.20;;;;;;;;;;5041127;28;20048;-64
2023/09/07 06:35:18;;;;;;;5.65;5.05;;;;;;;;;;5043963;28;20811;-64
2023/09/07 06:37:44;;;;;;;6.13;5.33;;;;;;;;;;5045234;28;20128;-64
2023/09/07 06:40:10;;;;;;;5.72;5.00;;;;;;;;;;5046990;28;20041;-65
2023/09/07 06:42:35;;;;;;;5.97;5.15;;;;;;;;;;5048251;28;20053;-62
2023/09/07 06:45:00;;;;;;;5.32;4.53;;;;;;;;;;5031742;28;20061;-62
2023/09/07 06:47:25;;;;;;;6.53;4.93;;;;;;;;;;5051634;28;20033;-62
2023/09/07 06:49:51;;;;;;;5.83;5.07;;;;;;;;;;5048284;28;20064;-62
2023/09/07 06:52:16;;;;;;;5.60;4.95;;;;;;;;;;5043945;28;20279;-63
2023/09/07 06:54:41;;;;;;;8.13;4.90;;;;;;;;;;5045768;28;20532;-63
2023/09/07 06:57:08;;;;;;;7.87;5.60;;;;;;;;;;5045763;28;20296;-64
2023/09/07 06:59:33;;;;;;;5.32;4.60;;;;;;;;;;5042281;28;20118;-63
2023/09/07 07:01:59;;;;;;;5.13;4.40;;;;;;;;;;5042526;28;20095;-66
2023/09/07 07:04:25;;;;;;;5.68;4.97;;;;;;;;;;5045002;28;20045;-63
2023/09/07 07:06:50;;;;;;;5.93;5.03;;;;;;;;;;5044319;28;20513;-63
2023/09/07 07:09:15;;;;;;;5.73;4.70;;;;;;;;;;5045123;28;20469;-63
2023/09/07 07:11:42;;;;;;;5.97;4.47;;;;;;;;;;5035003;28;20529;-64
2023/09/07 07:14:08;;;;;;;6.43;4.88;;;;;;;;;;5044567;28;20069;-63
2023/09/07 07:16:33;;;;;;;5.93;4.50;;;;;;;;;;5044726;28;20045;-64
2023/09/07 07:18:59;;;;;;;5.97;5.00;;;;;;;;;;5043020;28;20402;-63
2023/09/07 07:21:24;;;;;;;6.57;5.00;;;;;;;;;;5045007;28;20385;-66
2023/09/07 07:23:49;;;;;;;5.63;5.03;;;;;;;;;;5044680;28;20651;-64
2023/09/07 07:26:15;;;;;;;6.32;4.97;;;;;;;;;;5044898;28;20045;-63
2023/09/07 07:28:40;;;;;;;5.77;4.70;;;;;;;;;;5022692;28;20183;-65
2023/09/07 07:31:11;;;;;;;5.87;5.10;;;;;;;;;;5039362;28;20079;-65
2023/09/07 07:33:37;;;;;;;5.57;4.80;;;;;;;;;;5044336;28;20044;-64
2023/09/07 07:36:02;;;;;;;6.05;5.00;;;;;;;;;;5044864;28;20042;-63
2023/09/07 07:38:28;;;;;;;6.63;4.95;;;;;;;;;;5044573;28;20061;-63
2023/09/07 07:40:53;;;;;;;5.70;4.90;;;;;;;;;;5040797;28;20417;-63
2023/09/07 07:43:18;;;;;;;6.20;4.93;;;;;;;;;;5037622;28;20131;-63
2023/09/07 07:45:44;;;;;;;5.60;5.00;;;;;;;;;;5039475;28;20037;-65
2023/09/07 07:48:09;;;;;;;6.03;4.77;;;;;;;;;;5042716;28;20288;-62
2023/09/07 07:50:39;;;;;;;6.03;4.70;;;;;;;;;;5042639;28;20044;-64
2023/09/07 07:53:04;;;;;;;;;;;;;;;;;;5020975;28;20303;-62
2023/09/07 07:55:29;;;;;;;5.85;4.68;;;;;;;;;;5040456;28;19917;-64
2023/09/07 07:57:55;;;;;;;5.57;4.70;;;;;;;;;;5040886;28;20048;-62
2023/09/07 08:00:20;;;;;;;5.13;4.63;;;;;;;;;;5044538;28;20787;-62
2023/09/07 08:02:45;;;;;;;5.72;5.05;;;;;;;;;;5043038;28;20505;-63
2023/09/07 08:05:10;;;;;;;6.37;5.10;;;;;;;;;;5042263;28;20037;-63
2023/09/07 08:07:36;;;;;;;5.20;4.60;;;;;;;;;;5042676;28;20319;-63
2023/09/07 08:10:03;;;;;;;6.40;4.83;;;;;;;;;;5044619;28;20114;-62
2023/09/07 08:12:28;;;;;;;6.95;5.07;;;;;;;;;;5044309;28;20272;-62
2023/09/07 08:14:53;;;;;;;6.03;4.57;;;;;;;;;;5041457;28;20040;-62
2023/09/07 08:17:20;;;;;;;5.80;4.70;;;;;;;;;;5036222;28;20817;-65
2023/09/07 08:19:47;;;;;;;6.78;5.05;;;;;;;;;;5041341;28;20784;-64
2023/09/07 08:22:12;;;;;;;5.65;4.70;;;;;;;;;;5037676;28;20045;-64
2023/09/07 08:24:39;;;;;;;5.33;4.30;;;;;;;;;;5042303;28;20052;-64
2023/09/07 08:27:05;;;;;;;6.38;4.57;;;;;;;;;;5042468;28;20040;-64
2023/09/07 08:29:32;;;;;;;5.28;4.70;;;;;;;;;;5043653;28;20124;-63
2023/09/07 08:31:59;;;;;;;4.93;4.30;;;;;;;;;;5042128;28;20036;-63
2023/09/07 08:34:24;;;;;;;5.00;4.45;;;;;;;;;;5040224;28;20045;-64
2023/09/07 08:36:53;;;;;;;5.10;4.30;;;;;;;;;;5042617;28;20536;-64
2023/09/07 08:39:19;;;;;;;6.03;4.50;;;;;;;;;;5024433;28;20319;-63
2023/09/07 08:41:45;;;;;;;5.72;4.50;;;;;;;;;;5042598;28;20044;-63
2023/09/07 08:44:10;;;;;;;5.00;4.50;;;;;;;;;;5043236;28;20040;-62
2023/09/07 08:46:36;;;;;;;5.45;4.45;;;;;;;;;;5042792;28;20031;-63
2023/09/07 08:49:02;;;;;;;5.65;5.05;;;;;;;;;;5022750;28;20033;-63
2023/09/07 08:51:28;;;;;;;5.15;4.65;;;;;;;;;;5045230;28;20064;-63
2023/09/07 08:53:53;;;;;;;5.60;4.43;;;;;;;;;;5051760;28;20497;-63
2023/09/07 08:56:19;;;;;;;6.50;4.70;;;;;;;;;;5041319;28;20279;-63
2023/09/07 08:58:44;;;;;;;6.85;4.60;;;;;;;;;;5043588;28;20041;-65
2023/09/07 09:01:10;;;;;;;5.15;4.65;;;;;;;;;;5042775;28;20029;-63
2023/09/07 09:03:35;;;;;;;5.05;4.55;;;;;;;;;;5041557;28;20135;-65
2023/09/07 09:06:01;;;;;;;5.10;4.55;;;;;;;;;;5042628;28;20426;-63
2023/09/07 09:08:26;;;;;;;5.60;4.20;;;;;;;;;;5042419;28;20045;-62
2023/09/07 09:11:03;;;;;;;5.27;4.60;;;;;;;;;;5033071;28;20460;-63
2023/09/07 09:13:29;;;;;;;5.22;4.45;;;;;;;;;;5014778;28;20349;-64
2023/09/07 09:15:54;;;;;;;5.72;4.65;;;;;;;;;;5041804;28;20231;-62
2023/09/07 09:18:20;;;;;;;5.13;4.27;;;;;;;;;;5042709;28;20572;-63
2023/09/07 09:20:45;;;;;;;5.60;4.70;;;;;;;;;;5035203;28;20512;-63
2023/09/07 09:23:12;;;;;;;5.03;4.53;;;;;;;;;;5043435;28;20649;-64
2023/09/07 09:25:37;;;;;;;5.53;4.55;;;;;;;;;;5041394;28;20275;-64
2023/09/07 09:28:03;;;;;;;6.43;4.40;;;;;;;;;;5020867;28;20549;-63
2023/09/07 09:30:28;;;;;;;5.97;4.80;;;;;;;;;;5041593;28;20494;-63
2023/09/07 09:32:53;;;;;;;6.07;4.75;;;;;;;;;;5024646;28;20022;-64
2023/09/07 09:35:19;;;;;;;5.88;4.47;;;;;;;;;;5042064;28;20501;-63
2023/09/07 09:37:48;;;;;;;5.05;4.25;;;;;;;;;;5043233;28;20060;-64
2023/09/07 09:40:14;;;;;;;6.25;4.22;;;;;;;;;;5042897;28;20055;-64
2023/09/07 09:42:41;;;;;;;5.32;4.50;;;;;;;;;;5035149;28;20037;-64
2023/09/07 09:45:06;;;;;;;5.20;4.35;;;;;;;;;;5040873;28;20075;-63
2023/09/07 09:47:32;;;;;;;5.22;4.05;;;;;;;;;;5033034;28;20052;-64
2023/09/07 09:49:57;;;;;;;5.03;4.28;;;;;;;;;;5031011;28;20045;-63
2023/09/07 09:52:23;;;;;;;4.70;4.03;;;;;;;;;;5036334;28;20040;-62
2023/09/07 09:54:50;;;;;;;4.45;4.05;;;;;;;;;;5039730;28;20385;-62
2023/09/07 09:57:15;;;;;;;4.88;4.30;;;;;;;;;;5042161;28;20556;-64
2023/09/07 09:59:40;;;;;;;5.40;4.43;;;;;;;;;;5040836;28;20044;-63
2023/09/07 10:02:06;;;;;;;5.05;4.40;;;;;;;;;;5021846;28;20053;-63
2023/09/07 10:04:31;;;;;;;5.00;4.30;;;;;;;;;;5040915;28;20063;-63
2023/09/07 10:06:59;;;;;;;5.25;4.57;;;;;;;;;;5040591;28;20103;-63
2023/09/07 10:09:24;;;;;;;5.13;4.63;;;;;;;;;;5041473;28;20691;-64
2023/09/07 10:11:53;;;;;;;4.80;3.97;;;;;;;;;;5039903;28;20037;-64
2023/09/07 10:14:18;;;;;;;4.90;4.13;;;;;;;;;;5040826;28;20336;-62
2023/09/07 10:17:04;;;;;;;6.40;4.53;;;;;;;;;;5040470;28;20048;-63
2023/09/07 10:20:05;;;;;;;5.05;4.30;;;;;;;;;;5040844;28;20071;-63
2023/09/07 10:22:30;;;;;;;5.32;4.10;;;;;;;;;;4999534;28;20033;-63
2023/09/07 10:25:07;;;;;;;4.27;3.87;;;;;;;;;;5021023;28;20068;-63
2023/09/07 10:27:39;;;;;;;4.95;3.95;;;;;;;;;;5041583;28;20044;-65
2023/09/07 10:30:09;;;;;;;6.20;4.18;;;;;;;;;;5044758;28;20041;-64
2023/09/07 10:32:37;;;;;;;4.53;4.13;;;;;;;;;;5036918;28;20061;-64
2023/09/07 10:35:11;;;;;;;5.20;4.45;;;;;;;;;;5038255;28;20067;-64
2023/09/07 10:37:36;;;;;;;5.28;4.35;;;;;;;;;;5044145;28;20083;-64
2023/09/07 10:40:03;;;;;;;5.33;4.43;;;;;;;;;;5040307;28;20026;-65
2023/09/07 10:42:30;;;;;;;4.97;4.05;;;;;;;;;;5043318;28;20037;-64
2023/09/07 10:44:55;;;;;;;5.20;3.90;;;;;;;;;;5045574;28;20408;-64
2023/09/07 10:47:20;;;;;;;5.03;4.37;;;;;;;;;;5043469;28;20033;-64
2023/09/07 10:49:45;;;;;;;4.63;3.80;;;;;;;;;;5044139;28;20103;-62
2023/09/07 10:52:11;;;;;;;5.83;4.40;;;;;;;;;;5046191;28;20029;-62
2023/09/07 10:54:36;;;;;;;4.57;4.10;;;;;;;;;;5043973;28;20919;-62
2023/09/07 10:57:13;;;;;;;4.50;3.95;;;;;;;;;;5043785;28;20338;-63
2023/09/07 10:59:38;;;;;;;4.32;3.92;;;;;;;;;;5016053;28;20039;-62
2023/09/07 11:02:06;;;;;;;8.13;4.17;;;;;;;;;;5045341;28;20392;-63
2023/09/07 11:04:31;;;;;;;5.05;4.05;;;;;;;;;;5044318;28;20663;-63
2023/09/07 11:06:57;;;;;;;4.47;3.70;;;;;;;;;;5043570;28;20037;-62
2023/09/07 11:09:22;;;;;;;5.07;3.90;;;;;;;;;;5043193;28;20287;-64
2023/09/07 11:11:47;;;;;;;4.25;3.85;;;;;;;;;;5036725;28;20139;-63
2023/09/07 11:14:12;;;;;;;4.78;4.28;;;;;;;;;;5043300;28;20493;-63
2023/09/07 11:16:40;;;;;;;4.77;4.03;;;;;;;;;;5025227;28;20025;-63
2023/09/07 11:19:05;;;;;;;4.88;3.95;;;;;;;;;;5033959;28;20028;-63
2023/09/07 11:21:32;;;;;;;5.00;4.00;;;;;;;;;;5041561;28;20025;-63
2023/09/07 11:23:57;;;;;;;4.97;4.40;;;;;;;;;;5024871;28;20107;-62
2023/09/07 11:26:23;;;;;;;4.70;4.00;;;;;;;;;;5044395;28;20588;-63
2023/09/07 11:28:48;;;;;;;4.47;4.00;;;;;;;;;;5022919;28;20779;-62
2023/09/07 11:31:13;;;;;;;4.60;3.90;;;;;;;;;;5040817;28;20528;-63
2023/09/07 11:33:38;;;;;;;4.90;4.23;;;;;;;;;;5041882;28;20346;-62
2023/09/07 11:36:04;;;;;;;5.07;3.85;;;;;;;;;;5040906;28;20267;-63
2023/09/07 11:38:30;;;;;;;4.57;3.90;;;;;;;;;;5044005;28;20051;-62
2023/09/07 11:40:55;;;;;;;5.10;4.03;;;;;;;;;;5045594;28;20123;-65
2023/09/07 11:43:22;;;;;;;4.35;3.80;;;;;;;;;;5043381;28;20024;-63
2023/09/07 11:45:47;;;;;;;4.95;3.85;;;;;;;;;;5039597;28;20611;-62
2023/09/07 11:48:12;;;;;;;4.77;3.73;;;;;;;;;;5042420;28;20052;-63
2023/09/07 11:50:38;;;;;;;4.75;4.18;;;;;;;;;;5038199;28;20435;-62
2023/09/07 11:53:06;;;;;;;5.40;4.18;;;;;;;;;;5033509;28;20113;-65
2023/09/07 11:55:32;;;;;;;5.38;3.90;;;;;;;;;;5043207;28;20032;-65
2023/09/07 11:57:57;;;;;;;5.45;3.80;;;;;;;;;;5042639;28;20036;-62
2023/09/07 12:00:23;;;;;;;4.93;4.03;;;;;;;;;;5036023;28;20043;-63
2023/09/07 12:02:48;;;;;;;5.60;4.18;;;;;;;;;;5036461;28;20052;-62
2023/09/07 12:05:15;;;;;;;4.47;3.63;;;;;;;;;;5037796;28;20519;-64
2023/09/07 12:07:40;;;;;;;4.97;3.85;;;;;;;;;;5043677;28;20275;-64
2023/09/07 12:10:06;;;;;;;4.50;3.93;;;;;;;;;;5017258;28;20017;-64
2023/09/07 12:12:31;;;;;;;5.72;4.20;;;;;;;;;;5042788;28;20775;-64
2023/09/07 12:14:56;;;;;;;5.27;4.00;;;;;;;;;;5039373;28;20051;-63
2023/09/07 12:17:22;;;;;;;5.80;4.03;;;;;;;;;;5042472;28;21105;-65
2023/09/07 12:19:47;;;;;;;4.22;3.60;;;;;;;;;;5034501;28;20549;-64
2023/09/07 12:22:12;;;;;;;4.40;3.60;;;;;;;;;;5043189;28;20041;-63
2023/09/07 12:24:37;;;;;;;4.40;3.55;;;;;;;;;;5043574;28;20073;-62
2023/09/07 12:27:03;;;;;;;4.97;3.83;;;;;;;;;;5042192;28;20657;-64
2023/09/07 12:29:28;;;;;;;4.57;3.90;;;;;;;;;;5044205;28;20584;-63
2023/09/07 12:31:54;;;;;;;4.83;4.03;;;;;;;;;;5043042;28;20071;-64
2023/09/07 12:34:19;;;;;;;4.53;3.53;;;;;;;;;;5042255;28;20125;-63
2023/09/07 12:36:45;;;;;;;4.17;3.67;;;;;;;;;;5042703;28;20135;-62
2023/09/07 12:39:12;;;;;;;4.85;4.03;;;;;;;;;;5043684;28;20744;-62
2023/09/07 12:41:37;;;;;;;4.25;3.70;;;;;;;;;;5041007;28;20052;-63
2023/09/07 12:44:23;;;;;;;5.03;3.72;;;;;;;;;;5032963;28;20087;-64
2023/09/07 12:46:51;;;;;;;4.78;4.05;;;;;;;;;;5041886;28;20049;-65
2023/09/07 12:49:16;;;;;;;4.25;3.85;;;;;;;;;;5029400;28;20363;-64
2023/09/07 12:51:41;;;;;;;4.80;4.07;;;;;;;;;;5024769;28;20098;-64
2023/09/07 12:54:07;;;;;;;4.28;3.40;;;;;;;;;;5041921;28;20563;-63
2023/09/07 12:56:32;;;;;;;5.60;3.90;;;;;;;;;;5024486;28;20106;-63
2023/09/07 12:58:59;;;;;;;3.95;3.45;;;;;;;;;;5007179;28;20092;-65
2023/09/07 13:01:41;;;;;;;4.63;3.85;;;;;;;;;;5036750;28;20119;-63
2023/09/07 13:04:06;;;;;;;4.70;3.75;;;;;;;;;;5019956;28;20033;-62
2023/09/07 13:06:31;;;;;;;4.40;3.78;;;;;;;;;;5037180;28;20470;-63
2023/09/07 13:08:56;;;;;;;4.13;3.67;;;;;;;;;;5042700;28;20072;-63
2023/09/07 13:11:21;;;;;;;4.83;3.70;;;;;;;;;;5038940;28;20398;-63
2023/09/07 13:13:47;;;;;;;4.40;3.23;;;;;;;;;;5026889;28;20041;-64
2023/09/07 13:16:22;;;;;;;4.23;3.40;;;;;;;;;;5038521;28;20048;-64
2023/09/07 13:18:47;;;;;;;4.40;3.55;;;;;;;;;;5032367;28;20053;-64
2023/09/07 13:21:19;;;;;;;3.83;3.30;;;;;;;;;;5033286;28;20586;-64
2023/09/07 13:23:46;;;;;;;4.15;3.58;;;;;;;;;;5024213;28;20032;-62
2023/09/07 13:26:12;;;;;;;4.20;3.42;;;;;;;;;;5041690;28;20037;-64
2023/09/07 13:28:37;;;;;;;4.05;3.50;;;;;;;;;;5040271;28;20036;-63
2023/09/07 13:31:03;;;;;;;4.27;3.67;;;;;;;;;;5043112;28;20025;-65
2023/09/07 13:33:29;;;;;;;4.43;3.47;;;;;;;;;;5041600;28;20052;-64
2023/09/07 13:35:54;;;;;;;4.57;3.63;;;;;;;;;;5041350;28;20116;-63
2023/09/07 13:38:20;;;;;;;4.37;3.43;;;;;;;;;;5042861;28;20246;-64
2023/09/07 13:40:45;;;;;;;4.37;3.50;;;;;;;;;;5040544;28;20076;-64
2023/09/07 13:43:10;;;;;;;4.83;3.50;;;;;;;;;;5025667;28;20284;-65
2023/09/07 13:45:35;;;;;;;3.47;3.05;;;;;;;;;;5028576;28;20033;-63
2023/09/07 13:48:02;;;;;;;3.87;3.47;;;;;;;;;;5040872;28;20041;-63
2023/09/07 13:50:29;;;;;;;4.47;3.40;;;;;;;;;;5041662;28;20284;-62
2023/09/07 13:52:54;;;;;;;4.60;3.50;;;;;;;;;;5043688;28;20131;-62
2023/09/07 13:55:19;;;;;;;4.43;3.30;;;;;;;;;;5041723;28;20129;-63
2023/09/07 13:57:44;;;;;;;4.90;3.10;;;;;;;;;;5041394;28;20362;-62
2023/09/07 14:00:10;;;;;;;3.85;3.17;;;;;;;;;;5041333;28;20362;-65
2023/09/07 14:02:35;;;;;;;4.30;3.15;;;;;;;;;;5041067;28;20045;-63
2023/09/07 14:05:00;;;;;;;4.60;3.30;;;;;;;;;;5027585;28;20037;-63
2023/09/07 14:07:26;;;;;;;4.18;3.30;;;;;;;;;;5046273;28;20327;-63
2023/09/07 14:09:54;;;;;;;4.00;3.40;;;;;;;;;;5046415;28;20226;-62
2023/09/07 14:12:19;;;;;;;4.07;3.42;;;;;;;;;;5045246;28;20341;-63
2023/09/07 14:14:44;;;;;;;3.85;3.20;;;;;;;;;;5028279;28;20041;-65
2023/09/07 14:17:09;;;;;;;3.67;3.10;;;;;;;;;;5044564;28;20041;-62
2023/09/07 14:19:35;;;;;;;3.90;3.37;;;;;;;;;;5045603;28;20037;-63
2023/09/07 14:22:00;;;;;;;3.90;3.42;;;;;;;;;;5045271;28;20390;-63
2023/09/07 14:24:25;;;;;;;4.67;3.20;;;;;;;;;;5046080;28;20041;-63
2023/09/07 14:26:51;;;;;;;4.00;3.20;;;;;;;;;;5044577;28;20291;-62
2023/09/07 14:29:16;;;;;;;5.07;3.42;;;;;;;;;;5045881;28;20283;-63
2023/09/07 14:31:45;;;;;;;4.38;3.13;;;;;;;;;;5044864;28;20025;-63
2023/09/07 14:34:10;;;;;;;4.00;3.30;;;;;;;;;;5042549;28;20592;-65
2023/09/07 14:36:36;;;;;;;3.85;3.28;;;;;;;;;;5040993;28;20087;-64